Time;durP1;ratioP1;P1;durP2;ratioP2;P2;SDS_P1;SDS_P2;PMS_P1;PMS_P2;Temp;Humidity;BMP_temperature;BMP_pressure;BME280_temperature;BME280_humidity;BME280_pressure;Samples;Min_cycle;Max_cycle;Signal;HPM_P1;HPM_P2
2022/08/15 00:01:36;;;;;;;12.90;10.50;;;;;;;;;;5048876;28;20053;-61
2022/08/15 00:04:02;;;;;;;13.00;11.50;;;;;;;;;;5047990;28;20053;-61
2022/08/15 00:06:42;;;;;;;12.63;11.33;;;;;;;;;;5047808;28;20045;-60
2022/08/15 00:09:14;;;;;;;13.03;10.57;;;;;;;;;;5047391;28;20076;-62
2022/08/15 00:11:42;;;;;;;14.57;11.20;;;;;;;;;;5048756;28;20057;-61
2022/08/15 00:14:21;;;;;;;12.63;10.77;;;;;;;;;;5048428;28;20503;-60
2022/08/15 00:16:48;;;;;;;15.03;10.60;;;;;;;;;;5047722;28;20106;-60
2022/08/15 00:19:26;;;;;;;15.63;11.87;;;;;;;;;;5048049;28;20124;-61
2022/08/15 00:21:54;;;;;;;13.83;12.27;;;;;;;;;;5048113;28;20472;-60
2022/08/15 00:24:25;;;;;;;14.20;11.47;;;;;;;;;;5047280;28;20053;-60
2022/08/15 00:26:52;;;;;;;14.40;11.17;;;;;;;;;;5048564;28;20056;-60
2022/08/15 00:29:19;;;;;;;15.00;11.80;;;;;;;;;;5047643;28;20391;-60
2022/08/15 00:31:46;;;;;;;13.60;10.77;;;;;;;;;;5048188;28;20052;-60
2022/08/15 00:34:14;;;;;;;16.97;11.63;;;;;;;;;;5048478;28;20049;-61
2022/08/15 00:36:40;;;;;;;14.27;10.67;;;;;;;;;;5048640;28;20044;-61
2022/08/15 00:39:06;;;;;;;12.00;10.77;;;;;;;;;;5047391;28;20049;-61
2022/08/15 00:41:39;;;;;;;15.67;12.20;;;;;;;;;;5047762;28;20057;-60
2022/08/15 00:44:16;;;;;;;12.35;11.05;;;;;;;;;;5047583;28;20459;-61
2022/08/15 00:46:47;;;;;;;12.17;10.97;;;;;;;;;;5047585;28;20041;-60
2022/08/15 00:49:14;;;;;;;13.03;11.13;;;;;;;;;;5048406;28;20052;-60
2022/08/15 00:51:46;;;;;;;13.63;12.23;;;;;;;;;;5047481;28;20049;-60
2022/08/15 00:54:34;;;;;;;12.40;11.10;;;;;;;;;;5047528;28;20526;-61
2022/08/15 00:57:14;;;;;;;11.20;9.33;;;;;;;;;;5047789;28;20052;-60
2022/08/15 00:59:44;;;;;;;12.43;10.33;;;;;;;;;;5047978;28;20041;-60
2022/08/15 01:02:12;;;;;;;14.20;11.60;;;;;;;;;;5048362;28;20124;-61
2022/08/15 01:04:38;;;;;;;12.03;10.10;;;;;;;;;;5047301;28;20400;-60
2022/08/15 01:07:05;;;;;;;12.47;10.27;;;;;;;;;;5047334;28;20526;-61
2022/08/15 01:09:31;;;;;;;14.97;10.03;;;;;;;;;;5047871;28;20064;-60
2022/08/15 01:12:01;;;;;;;12.37;10.70;;;;;;;;;;5047609;28;20049;-60
2022/08/15 01:14:27;;;;;;;12.33;10.30;;;;;;;;;;5047391;28;20053;-60
2022/08/15 01:16:53;;;;;;;14.80;11.10;;;;;;;;;;5049655;28;20044;-61
2022/08/15 01:19:22;;;;;;;14.60;10.73;;;;;;;;;;5051774;28;20047;-61
2022/08/15 01:21:56;;;;;;;12.63;11.33;;;;;;;;;;5051672;28;20049;-61
2022/08/15 01:24:28;;;;;;;12.50;11.20;;;;;;;;;;5051114;28;20381;-61
2022/08/15 01:26:54;;;;;;;14.50;11.20;;;;;;;;;;5051405;28;20049;-60
2022/08/15 01:29:20;;;;;;;16.37;12.17;;;;;;;;;;5051579;28;20044;-61
2022/08/15 01:31:47;;;;;;;13.30;11.90;;;;;;;;;;5052028;28;20049;-61
2022/08/15 01:34:13;;;;;;;15.20;11.77;;;;;;;;;;5051039;28;20074;-60
2022/08/15 01:36:39;;;;;;;13.03;11.23;;;;;;;;;;5051195;28;20037;-61
2022/08/15 01:39:19;;;;;;;14.97;11.63;;;;;;;;;;5051089;28;20071;-60
2022/08/15 01:41:48;;;;;;;12.87;10.97;;;;;;;;;;5051838;28;20144;-61
2022/08/15 01:44:20;;;;;;;14.57;11.53;;;;;;;;;;5051065;28;20127;-60
2022/08/15 01:46:51;;;;;;;13.97;12.53;;;;;;;;;;5051674;28;20084;-60
2022/08/15 01:49:26;;;;;;;12.83;11.47;;;;;;;;;;5050801;28;20053;-61
2022/08/15 01:51:54;;;;;;;13.33;12.03;;;;;;;;;;5051326;28;20072;-61
2022/08/15 01:54:20;;;;;;;14.93;12.20;;;;;;;;;;5051466;28;20047;-60
2022/08/15 01:56:47;;;;;;;13.50;11.90;;;;;;;;;;5051115;28;20410;-61
2022/08/15 01:59:15;;;;;;;12.53;11.23;;;;;;;;;;5050662;28;20461;-61
2022/08/15 02:01:44;;;;;;;13.57;11.93;;;;;;;;;;5051109;28;20140;-61
2022/08/15 02:04:12;;;;;;;12.83;10.87;;;;;;;;;;5050786;28;20052;-61
2022/08/15 02:06:39;;;;;;;12.57;11.30;;;;;;;;;;5051550;28;20045;-60
2022/08/15 02:09:07;;;;;;;12.13;10.83;;;;;;;;;;5050248;28;20052;-61
2022/08/15 02:11:33;;;;;;;11.73;10.07;;;;;;;;;;5049227;28;20153;-61
2022/08/15 02:13:59;;;;;;;11.60;10.50;;;;;;;;;;5050436;28;20045;-60
2022/08/15 02:16:29;;;;;;;16.80;13.50;;;;;;;;;;5049953;28;20056;-61
2022/08/15 02:18:55;;;;;;;16.80;11.87;;;;;;;;;;5029838;28;20400;-60
2022/08/15 02:21:21;;;;;;;13.03;11.73;;;;;;;;;;5029321;28;20053;-60
2022/08/15 02:23:47;;;;;;;15.10;11.30;;;;;;;;;;5029837;28;20045;-61
2022/08/15 02:26:13;;;;;;;14.07;10.47;;;;;;;;;;5029511;28;20443;-61
2022/08/15 02:28:41;;;;;;;12.97;10.63;;;;;;;;;;5042534;28;20053;-61
2022/08/15 02:31:09;;;;;;;12.83;11.47;;;;;;;;;;5048914;28;20076;-61
2022/08/15 02:33:35;;;;;;;12.90;10.77;;;;;;;;;;5049150;28;20087;-61
2022/08/15 02:36:01;;;;;;;12.63;11.40;;;;;;;;;;5049112;28;20132;-61
2022/08/15 02:38:28;;;;;;;13.30;12.00;;;;;;;;;;5047977;28;20041;-61
2022/08/15 02:40:54;;;;;;;13.40;12.10;;;;;;;;;;5049675;28;20475;-61
2022/08/15 02:43:21;;;;;;;12.53;11.30;;;;;;;;;;5048963;28;20055;-61
2022/08/15 02:45:48;;;;;;;14.03;12.43;;;;;;;;;;5049228;28;20503;-61
2022/08/15 02:48:14;;;;;;;13.53;12.13;;;;;;;;;;5049096;28;20115;-61
2022/08/15 02:50:41;;;;;;;14.70;12.17;;;;;;;;;;5048884;28;20041;-60
2022/08/15 02:53:11;;;;;;;15.63;13.10;;;;;;;;;;5048981;28;20040;-61
2022/08/15 02:55:38;;;;;;;14.70;11.87;;;;;;;;;;5049575;28;20131;-60
2022/08/15 02:58:04;;;;;;;15.30;13.07;;;;;;;;;;5049191;28;20049;-60
2022/08/15 03:00:30;;;;;;;14.30;12.73;;;;;;;;;;5049014;28;20047;-60
2022/08/15 03:02:59;;;;;;;15.80;12.20;;;;;;;;;;5047835;28;20041;-61
2022/08/15 03:05:27;;;;;;;16.63;11.10;;;;;;;;;;5049253;28;20618;-61
2022/08/15 03:07:53;;;;;;;12.83;11.53;;;;;;;;;;5048879;28;20111;-61
2022/08/15 03:10:19;;;;;;;16.43;11.63;;;;;;;;;;5011118;28;1125236;-60
2022/08/15 03:12:53;;;;;;;13.63;10.87;;;;;;;;;;5049395;28;20057;-60
2022/08/15 03:15:19;;;;;;;11.53;9.67;;;;;;;;;;5050052;28;20049;-60
2022/08/15 03:17:45;;;;;;;11.73;10.27;;;;;;;;;;5049274;28;20601;-60
2022/08/15 03:20:12;;;;;;;15.00;11.50;;;;;;;;;;5049704;28;20458;-60
2022/08/15 03:22:45;;;;;;;14.17;11.60;;;;;;;;;;5050128;28;20056;-60
2022/08/15 03:25:12;;;;;;;14.67;12.53;;;;;;;;;;5049800;28;20466;-61
2022/08/15 03:27:40;;;;;;;14.17;12.67;;;;;;;;;;5049143;28;20086;-60
2022/08/15 03:30:09;;;;;;;14.00;12.53;;;;;;;;;;5048736;28;21621;-61
2022/08/15 03:32:43;;;;;;;16.50;14.77;;;;;;;;;;5049715;28;20041;-60
2022/08/15 03:35:09;;;;;;;15.03;13.50;;;;;;;;;;5048982;28;20521;-61
2022/08/15 03:37:36;;;;;;;16.30;13.63;;;;;;;;;;5049712;28;20049;-60
2022/08/15 03:40:03;;;;;;;17.47;13.13;;;;;;;;;;5048301;28;20064;-60
2022/08/15 03:42:29;;;;;;;15.83;11.90;;;;;;;;;;5048472;28;20037;-60
2022/08/15 03:44:56;;;;;;;12.40;10.80;;;;;;;;;;5049226;28;20049;-61
2022/08/15 03:47:22;;;;;;;12.00;10.80;;;;;;;;;;5049022;28;20057;-60
2022/08/15 03:49:49;;;;;;;12.93;10.77;;;;;;;;;;5049151;28;20044;-61
2022/08/15 03:52:16;;;;;;;12.63;11.17;;;;;;;;;;5049012;28;20052;-61
2022/08/15 03:54:42;;;;;;;11.83;10.03;;;;;;;;;;5049024;28;20049;-60
2022/08/15 03:57:08;;;;;;;13.70;11.63;;;;;;;;;;5048302;28;20107;-60
2022/08/15 03:59:34;;;;;;;12.93;10.53;;;;;;;;;;5049192;28;20040;-60
2022/08/15 04:02:01;;;;;;;11.43;10.17;;;;;;;;;;5048632;28;20123;-60
2022/08/15 04:04:27;;;;;;;11.20;9.90;;;;;;;;;;5048636;28;20060;-60
2022/08/15 04:06:53;;;;;;;14.13;11.17;;;;;;;;;;5048772;28;20525;-60
2022/08/15 04:09:19;;;;;;;12.63;10.20;;;;;;;;;;5047440;28;20048;-60
2022/08/15 04:11:45;;;;;;;10.63;9.53;;;;;;;;;;5047665;28;20049;-61
2022/08/15 04:14:11;;;;;;;13.80;10.50;;;;;;;;;;5048400;28;20127;-61
2022/08/15 04:16:37;;;;;;;11.83;10.17;;;;;;;;;;5048759;28;20584;-60
2022/08/15 04:19:04;;;;;;;13.23;11.03;;;;;;;;;;5048229;28;20072;-61
2022/08/15 04:21:30;;;;;;;14.07;10.83;;;;;;;;;;5048142;28;20041;-61
2022/08/15 04:23:56;;;;;;;13.73;11.87;;;;;;;;;;5047184;28;20049;-60
2022/08/15 04:26:23;;;;;;;18.80;11.37;;;;;;;;;;5048477;28;20049;-61
2022/08/15 04:28:50;;;;;;;13.30;11.57;;;;;;;;;;5048485;28;20120;-60
2022/08/15 04:31:20;;;;;;;11.43;10.30;;;;;;;;;;5048035;28;20071;-61
2022/08/15 04:33:47;;;;;;;12.40;10.97;;;;;;;;;;5048075;28;20519;-60
2022/08/15 04:36:15;;;;;;;14.37;11.23;;;;;;;;;;5047920;28;20099;-60
2022/08/15 04:38:42;;;;;;;13.13;11.23;;;;;;;;;;5047630;28;20049;-61
2022/08/15 04:41:09;;;;;;;11.97;10.77;;;;;;;;;;5048570;28;20127;-60
2022/08/15 04:43:38;;;;;;;14.90;12.03;;;;;;;;;;5047483;28;20081;-61
2022/08/15 04:46:05;;;;;;;15.20;11.57;;;;;;;;;;5047740;28;20057;-61
2022/08/15 04:48:31;;;;;;;13.17;10.63;;;;;;;;;;5047853;28;20044;-61
2022/08/15 04:50:59;;;;;;;15.33;10.73;;;;;;;;;;5047813;28;20171;-61
2022/08/15 04:53:26;;;;;;;12.33;10.67;;;;;;;;;;5047849;28;20045;-60
2022/08/15 04:55:53;;;;;;;12.43;10.43;;;;;;;;;;5047537;28;20048;-61
2022/08/15 04:58:19;;;;;;;12.20;10.10;;;;;;;;;;5047142;28;20091;-61
2022/08/15 05:00:51;;;;;;;11.20;10.00;;;;;;;;;;5047336;28;20045;-61
2022/08/15 05:03:18;;;;;;;10.70;9.60;;;;;;;;;;5047488;28;20045;-61
2022/08/15 05:05:46;;;;;;;12.10;9.77;;;;;;;;;;5047586;28;20048;-61
2022/08/15 05:08:13;;;;;;;15.00;9.00;;;;;;;;;;5047265;28;20037;-60
2022/08/15 05:10:39;;;;;;;9.70;8.63;;;;;;;;;;5047534;28;20129;-60
2022/08/15 05:13:09;;;;;;;10.47;8.63;;;;;;;;;;5047944;28;20049;-61
2022/08/15 05:15:35;;;;;;;11.10;8.33;;;;;;;;;;5048454;28;20099;-60
2022/08/15 05:18:01;;;;;;;11.23;8.90;;;;;;;;;;5047930;28;20045;-61
2022/08/15 05:20:27;;;;;;;11.10;8.57;;;;;;;;;;5047733;28;20075;-60
2022/08/15 05:22:54;;;;;;;9.10;8.10;;;;;;;;;;5048113;28;20041;-60
2022/08/15 05:25:21;;;;;;;10.73;8.13;;;;;;;;;;5047197;28;20503;-60
2022/08/15 05:27:47;;;;;;;10.27;8.97;;;;;;;;;;5047913;28;20373;-60
2022/08/15 05:30:14;;;;;;;10.27;9.20;;;;;;;;;;5047758;28;20052;-60
2022/08/15 05:32:40;;;;;;;14.83;11.20;;;;;;;;;;5048253;28;20041;-61
2022/08/15 05:35:06;;;;;;;12.33;11.07;;;;;;;;;;5047202;28;20045;-61
2022/08/15 05:37:33;;;;;;;12.23;10.70;;;;;;;;;;5048199;28;20536;-60
2022/08/15 05:39:59;;;;;;;12.40;11.20;;;;;;;;;;5047009;28;20117;-60
2022/08/15 05:42:40;;;;;;;12.33;10.70;;;;;;;;;;5047524;28;20052;-60
2022/08/15 05:45:17;;;;;;;11.37;10.03;;;;;;;;;;5046427;28;20482;-61
2022/08/15 05:47:47;;;;;;;13.77;10.27;;;;;;;;;;5027173;28;20099;-60
2022/08/15 05:50:23;;;;;;;12.90;11.40;;;;;;;;;;5027682;28;20052;-60
2022/08/15 05:52:51;;;;;;;14.67;11.00;;;;;;;;;;5031345;28;20040;-60
2022/08/15 05:55:20;;;;;;;13.97;11.60;;;;;;;;;;5046918;28;20103;-61
2022/08/15 05:57:46;;;;;;;15.90;11.83;;;;;;;;;;5042084;28;20044;-60
2022/08/15 06:00:13;;;;;;;13.03;11.53;;;;;;;;;;5038034;28;20045;-60
2022/08/15 06:02:42;;;;;;;15.07;11.23;;;;;;;;;;5047489;28;20036;-60
2022/08/15 06:05:12;;;;;;;15.90;11.60;;;;;;;;;;5050480;28;20049;-61
2022/08/15 06:07:38;;;;;;;13.97;11.40;;;;;;;;;;5036272;28;20411;-60
2022/08/15 06:10:14;;;;;;;14.13;11.93;;;;;;;;;;5050398;28;20052;-60
2022/08/15 06:12:42;;;;;;;13.37;11.93;;;;;;;;;;5050475;28;20131;-61
2022/08/15 06:15:18;;;;;;;17.33;11.70;;;;;;;;;;5048557;28;20419;-60
2022/08/15 06:17:48;;;;;;;15.43;10.77;;;;;;;;;;5050317;28;21052;-60
2022/08/15 06:20:17;;;;;;;15.73;12.17;;;;;;;;;;5049954;28;20080;-60
2022/08/15 06:22:43;;;;;;;16.83;11.57;;;;;;;;;;5049835;28;20053;-60
2022/08/15 06:25:12;;;;;;;14.67;12.03;;;;;;;;;;5050451;28;20063;-60
2022/08/15 06:27:48;;;;;;;13.53;11.17;;;;;;;;;;5032553;28;20411;-60
2022/08/15 06:30:17;;;;;;;11.83;10.60;;;;;;;;;;5031238;28;20061;-60
2022/08/15 06:32:49;;;;;;;12.00;10.60;;;;;;;;;;5038338;28;20081;-60
2022/08/15 06:35:23;;;;;;;12.77;11.00;;;;;;;;;;5046898;28;20045;-60
2022/08/15 06:38:02;;;;;;;13.07;11.40;;;;;;;;;;5040652;28;20055;-60
2022/08/15 06:40:36;;;;;;;13.30;10.53;;;;;;;;;;5044611;28;20410;-60
2022/08/15 06:43:02;;;;;;;13.30;10.83;;;;;;;;;;5049631;28;20128;-60
2022/08/15 06:45:35;;;;;;;11.17;9.93;;;;;;;;;;5049468;28;20132;-60
2022/08/15 06:48:03;;;;;;;11.68;9.55;;;;;;;;;;5048925;28;20064;-60
2022/08/15 06:50:33;;;;;;;11.07;8.93;;;;;;;;;;5049908;28;20060;-60
2022/08/15 06:53:04;;;;;;;10.40;9.03;;;;;;;;;;5049928;28;20052;-61
2022/08/15 06:55:35;;;;;;;14.40;9.83;;;;;;;;;;5049823;28;20045;-60
2022/08/15 06:58:06;;;;;;;10.43;9.30;;;;;;;;;;5049744;28;20060;-60
2022/08/15 07:00:39;;;;;;;13.97;9.97;;;;;;;;;;5049454;28;20048;-60
2022/08/15 07:03:05;;;;;;;11.40;8.98;;;;;;;;;;5049353;28;20072;-60
2022/08/15 07:05:40;;;;;;;11.83;9.43;;;;;;;;;;5049223;28;20051;-60
2022/08/15 07:08:15;;;;;;;11.93;9.30;;;;;;;;;;5046650;28;20052;-61
2022/08/15 07:10:48;;;;;;;12.57;9.37;;;;;;;;;;5049777;28;20053;-61
2022/08/15 07:13:20;;;;;;;12.32;9.50;;;;;;;;;;5048421;28;20048;-60
2022/08/15 07:15:56;;;;;;;12.03;9.37;;;;;;;;;;5029635;28;20049;-61
2022/08/15 07:18:30;;;;;;;12.87;10.57;;;;;;;;;;5049306;28;20056;-60
2022/08/15 07:21:05;;;;;;;11.00;9.90;;;;;;;;;;5033740;28;20061;-60
2022/08/15 07:23:33;;;;;;;15.27;11.00;;;;;;;;;;5040844;28;20087;-60
2022/08/15 07:26:06;;;;;;;12.53;11.23;;;;;;;;;;5048782;28;20084;-61
2022/08/15 07:28:34;;;;;;;12.67;11.10;;;;;;;;;;5048940;28;20460;-61
2022/08/15 07:31:12;;;;;;;11.90;10.77;;;;;;;;;;5047114;28;20036;-61
2022/08/15 07:33:43;;;;;;;13.17;11.77;;;;;;;;;;5045524;28;20087;-61
2022/08/15 07:36:09;;;;;;;15.50;11.40;;;;;;;;;;5047614;28;20041;-62
2022/08/15 07:38:35;;;;;;;14.27;12.87;;;;;;;;;;5048154;28;20037;-60
2022/08/15 07:41:22;;;;;;;14.03;12.60;;;;;;;;;;5049236;28;20059;-61
2022/08/15 07:43:48;;;;;;;13.67;12.23;;;;;;;;;;5050403;28;20039;-61
2022/08/15 07:46:14;;;;;;;18.00;12.63;;;;;;;;;;5042117;28;20040;-61
2022/08/15 07:48:41;;;;;;;17.37;13.20;;;;;;;;;;5048024;28;20095;-61
2022/08/15 07:51:08;;;;;;;16.17;12.20;;;;;;;;;;5049021;28;20044;-60
2022/08/15 07:53:34;;;;;;;18.17;12.87;;;;;;;;;;5043484;28;20052;-61
2022/08/15 07:56:04;;;;;;;14.47;12.20;;;;;;;;;;5029134;28;20052;-61
2022/08/15 07:58:31;;;;;;;15.53;12.53;;;;;;;;;;5048937;28;20045;-61
2022/08/15 08:01:27;;;;;;;15.53;13.97;;;;;;;;;;5047907;28;20144;-62
2022/08/15 08:03:57;;;;;;;16.40;13.00;;;;;;;;;;5043052;28;20053;-61
2022/08/15 08:06:32;;;;;;;18.43;13.50;;;;;;;;;;5041753;28;20539;-62
2022/08/15 08:09:15;;;;;;;15.23;13.07;;;;;;;;;;5038775;28;20056;-61
2022/08/15 08:11:54;;;;;;;14.88;12.90;;;;;;;;;;5049203;28;20147;-61
2022/08/15 08:14:23;;;;;;;15.75;13.70;;;;;;;;;;5048511;28;20049;-61
2022/08/15 08:16:57;;;;;;;16.63;14.85;;;;;;;;;;5047827;28;20076;-61
2022/08/15 08:19:24;;;;;;;15.85;14.23;;;;;;;;;;5038391;28;20056;-61
2022/08/15 08:22:05;;;;;;;14.75;13.15;;;;;;;;;;5040349;28;20056;-61
2022/08/15 08:24:31;;;;;;;14.60;13.10;;;;;;;;;;5047857;28;20056;-61
2022/08/15 08:27:20;;;;;;;15.05;13.45;;;;;;;;;;5047831;28;20045;-61
2022/08/15 08:30:00;;;;;;;19.30;14.93;;;;;;;;;;5046836;28;20052;-61
2022/08/15 08:32:45;;;;;;;14.43;12.95;;;;;;;;;;5046904;28;20052;-61
2022/08/15 08:35:12;;;;;;;16.50;14.85;;;;;;;;;;5044977;28;20049;-61
2022/08/15 08:37:50;;;;;;;16.58;14.77;;;;;;;;;;5037552;28;20118;-61
2022/08/15 08:43:39;;;;;;;15.20;13.38;;;;;;;;;;5033642;28;20045;-61
2022/08/15 08:46:11;;;;;;;14.57;12.13;;;;;;;;;;5039837;28;20513;-61
2022/08/15 08:48:46;;;;;;;15.65;13.20;;;;;;;;;;5047307;28;20491;-61
2022/08/15 08:51:31;;;;;;;16.42;14.80;;;;;;;;;;5035650;28;20048;-62
2022/08/15 08:54:16;;;;;;;15.15;13.65;;;;;;;;;;5043753;28;20603;-61
2022/08/15 08:56:47;;;;;;;17.85;14.55;;;;;;;;;;5027886;28;20133;-61
2022/08/15 08:59:16;;;;;;;14.27;12.77;;;;;;;;;;5033890;28;20037;-62
2022/08/15 09:01:43;;;;;;;13.60;12.30;;;;;;;;;;5045146;28;20139;-61
2022/08/15 09:04:12;;;;;;;13.35;11.98;;;;;;;;;;5046901;28;20076;-61
2022/08/15 09:06:40;;;;;;;17.33;13.48;;;;;;;;;;5047539;28;20414;-61
2022/08/15 09:09:06;;;;;;;16.38;13.80;;;;;;;;;;5027836;28;20054;-61
2022/08/15 09:11:37;;;;;;;13.88;12.50;;;;;;;;;;5041655;28;20049;-61
2022/08/15 09:14:12;;;;;;;15.52;13.88;;;;;;;;;;5038885;28;20092;-61
2022/08/15 09:16:39;;;;;;;16.95;15.15;;;;;;;;;;5028773;28;20039;-61
2022/08/15 09:19:11;;;;;;;18.65;14.73;;;;;;;;;;5032094;28;20057;-61
2022/08/15 09:21:37;;;;;;;16.20;14.55;;;;;;;;;;5047089;28;20407;-61
2022/08/15 09:24:03;;;;;;;16.60;13.98;;;;;;;;;;5047181;28;20059;-61
2022/08/15 09:26:35;;;;;;;18.33;16.55;;;;;;;;;;5047103;28;20053;-61
2022/08/15 09:29:06;;;;;;;18.35;16.17;;;;;;;;;;5045119;28;20443;-61
2022/08/15 09:31:34;;;;;;;18.10;16.40;;;;;;;;;;5044678;28;20045;-61
2022/08/15 09:34:19;;;;;;;22.05;16.98;;;;;;;;;;5041259;28;20609;-61
2022/08/15 09:36:47;;;;;;;87.10;24.75;;;;;;;;;;5041587;28;20056;-63
2022/08/15 09:39:32;;;;;;;40.55;24.02;;;;;;;;;;5045679;28;20164;-65
2022/08/15 09:42:11;;;;;;;40.63;26.00;;;;;;;;;;5031497;28;20076;-64
2022/08/15 09:44:46;;;;;;;30.77;24.63;;;;;;;;;;5051528;28;20052;-65
2022/08/15 09:47:12;;;;;;;57.77;32.60;;;;;;;;;;5046842;28;20469;-64
2022/08/15 09:49:40;;;;;;;91.70;45.13;;;;;;;;;;5039436;28;20601;-65
2022/08/15 09:52:26;;;;;;;62.03;38.07;;;;;;;;;;5030963;28;20053;-64
2022/08/15 09:54:58;;;;;;;46.40;30.77;;;;;;;;;;5049607;28;20053;-65
2022/08/15 09:57:27;;;;;;;169.43;57.45;;;;;;;;;;5041727;28;20201;-65
2022/08/15 09:59:57;;;;;;;167.30;61.33;;;;;;;;;;5050984;28;20442;-66
2022/08/15 10:02:27;;;;;;;62.57;36.20;;;;;;;;;;5042829;28;20045;-65
2022/08/15 10:04:56;;;;;;;42.57;31.20;;;;;;;;;;5056789;28;20052;-65
2022/08/15 10:07:40;;;;;;;44.03;32.47;;;;;;;;;;5072145;28;20072;-65
2022/08/15 10:10:18;;;;;;;48.17;32.63;;;;;;;;;;5032239;28;20053;-65
2022/08/15 10:13:21;;;;;;;57.67;37.03;;;;;;;;;;5034971;28;20057;-65
2022/08/15 10:15:47;;;;;;;52.63;35.63;;;;;;;;;;5026136;28;20087;-65
2022/08/15 10:18:22;;;;;;;48.47;33.90;;;;;;;;;;5029155;28;20507;-65
2022/08/15 10:21:00;;;;;;;47.70;34.70;;;;;;;;;;5040410;28;20049;-65
2022/08/15 10:23:43;;;;;;;37.47;28.53;;;;;;;;;;5050508;28;20049;-65
2022/08/15 10:26:15;;;;;;;33.65;27.45;;;;;;;;;;5049901;28;20044;-64
2022/08/15 10:28:56;;;;;;;37.47;29.98;;;;;;;;;;5050155;28;20049;-64
2022/08/15 10:31:25;;;;;;;40.50;31.27;;;;;;;;;;5034764;28;20127;-65
2022/08/15 10:33:54;;;;;;;47.23;34.47;;;;;;;;;;5049736;28;20495;-65
2022/08/15 10:36:25;;;;;;;40.50;32.57;;;;;;;;;;5050471;28;20044;-64
2022/08/15 10:38:55;;;;;;;32.60;27.73;;;;;;;;;;5043894;28;20048;-64
2022/08/15 10:41:27;;;;;;;34.60;29.67;;;;;;;;;;5032686;28;20443;-64
2022/08/15 10:44:06;;;;;;;30.55;27.27;;;;;;;;;;5050048;28;20040;-65
2022/08/15 10:46:42;;;;;;;29.63;25.10;;;;;;;;;;5048537;28;20060;-64
2022/08/15 10:49:28;;;;;;;30.83;27.40;;;;;;;;;;5040138;28;20094;-64
2022/08/15 10:52:13;;;;;;;34.53;28.53;;;;;;;;;;5041722;28;20120;-64
2022/08/15 10:54:42;;;;;;;39.90;29.47;;;;;;;;;;5047700;28;20041;-63
2022/08/15 10:57:09;;;;;;;29.80;26.60;;;;;;;;;;5043846;28;20417;-63
2022/08/15 10:59:46;;;;;;;32.55;27.58;;;;;;;;;;5035230;28;20045;-63
2022/08/15 11:02:17;;;;;;;30.80;27.43;;;;;;;;;;5041802;28;20053;-64
2022/08/15 11:04:44;;;;;;;31.45;28.10;;;;;;;;;;5048480;28;20550;-64
2022/08/15 11:07:23;;;;;;;30.40;26.92;;;;;;;;;;5049153;28;20413;-63
2022/08/15 11:09:54;;;;;;;30.40;27.40;;;;;;;;;;5030014;28;20651;-63
2022/08/15 11:12:20;;;;;;;30.30;27.17;;;;;;;;;;5045433;28;20049;-63
2022/08/15 11:14:51;;;;;;;28.10;25.08;;;;;;;;;;5030678;28;20045;-63
2022/08/15 11:17:18;;;;;;;29.27;26.33;;;;;;;;;;5037649;28;20044;-63
2022/08/15 11:19:49;;;;;;;26.83;24.13;;;;;;;;;;5038556;28;20468;-64
2022/08/15 11:22:27;;;;;;;30.60;26.15;;;;;;;;;;5044159;28;20068;-63
2022/08/15 11:25:00;;;;;;;29.27;26.15;;;;;;;;;;5038354;28;20077;-63
2022/08/15 11:27:26;;;;;;;28.30;25.30;;;;;;;;;;5039655;28;20053;-63
2022/08/15 11:29:54;;;;;;;23.92;21.60;;;;;;;;;;5055639;28;20044;-63
2022/08/15 11:32:39;;;;;;;26.10;23.55;;;;;;;;;;5063658;28;20083;-63
2022/08/15 11:35:25;;;;;;;26.33;23.77;;;;;;;;;;5051661;28;20052;-63
2022/08/15 11:37:53;;;;;;;25.70;23.00;;;;;;;;;;5040006;28;20596;-63
2022/08/15 11:40:30;;;;;;;23.90;21.45;;;;;;;;;;5039707;28;20145;-63
2022/08/15 11:42:58;;;;;;;24.67;22.25;;;;;;;;;;5033641;28;20059;-63
2022/08/15 11:45:26;;;;;;;22.83;20.67;;;;;;;;;;5049568;28;20076;-63
2022/08/15 11:47:55;;;;;;;21.50;19.23;;;;;;;;;;5046541;28;20120;-63
2022/08/15 11:50:27;;;;;;;22.08;19.95;;;;;;;;;;5045488;28;20047;-62
2022/08/15 11:52:55;;;;;;;20.25;18.33;;;;;;;;;;5047712;28;20061;-63
2022/08/15 11:55:30;;;;;;;23.77;18.90;;;;;;;;;;5044692;28;20033;-63
2022/08/15 11:58:01;;;;;;;22.75;19.50;;;;;;;;;;5032454;28;20096;-62
2022/08/15 12:00:29;;;;;;;21.15;19.02;;;;;;;;;;5028628;28;20049;-62
2022/08/15 12:02:56;;;;;;;19.25;17.40;;;;;;;;;;5029916;28;20073;-63
2022/08/15 12:05:34;;;;;;;17.23;15.38;;;;;;;;;;5033348;28;20075;-62
2022/08/15 12:08:02;;;;;;;17.02;15.25;;;;;;;;;;5049277;28;20481;-62
2022/08/15 12:10:32;;;;;;;15.13;13.43;;;;;;;;;;5048273;28;20140;-62
2022/08/15 12:12:58;;;;;;;17.05;13.27;;;;;;;;;;5049069;28;20041;-62
2022/08/15 12:15:33;;;;;;;15.35;12.90;;;;;;;;;;5049131;28;20073;-62
2022/08/15 12:18:09;;;;;;;15.57;13.70;;;;;;;;;;5048378;28;20055;-62
2022/08/15 12:20:41;;;;;;;16.15;13.63;;;;;;;;;;5047144;28;20495;-62
2022/08/15 12:23:19;;;;;;;15.02;12.68;;;;;;;;;;5037760;28;20124;-61
2022/08/15 12:25:45;;;;;;;16.52;13.25;;;;;;;;;;5028930;28;20377;-61
2022/08/15 12:28:11;;;;;;;13.65;10.60;;;;;;;;;;5037770;28;20040;-62
2022/08/15 12:30:37;;;;;;;10.25;9.25;;;;;;;;;;5048572;28;20049;-62
2022/08/15 12:33:03;;;;;;;10.43;8.93;;;;;;;;;;5048293;28;20514;-62
2022/08/15 12:35:30;;;;;;;10.52;8.65;;;;;;;;;;5047361;28;20044;-62
2022/08/15 12:37:56;;;;;;;9.60;8.70;;;;;;;;;;5046756;28;20048;-61
2022/08/15 12:40:23;;;;;;;9.82;7.90;;;;;;;;;;5048551;28;20037;-61
2022/08/15 12:42:49;;;;;;;9.68;7.72;;;;;;;;;;5053469;28;20053;-62
2022/08/15 12:45:18;;;;;;;8.70;6.70;;;;;;;;;;5055696;28;20333;-62
2022/08/15 12:47:45;;;;;;;7.75;6.40;;;;;;;;;;5048109;28;20049;-62
2022/08/15 12:50:11;;;;;;;13.00;6.60;;;;;;;;;;5048197;28;20450;-61
2022/08/15 12:52:37;;;;;;;10.30;5.88;;;;;;;;;;5048418;28;20045;-62
2022/08/15 12:55:04;;;;;;;9.68;6.03;;;;;;;;;;5047703;28;20102;-61
2022/08/15 12:57:30;;;;;;;11.38;7.22;;;;;;;;;;5047273;28;20377;-61
2022/08/15 12:59:56;;;;;;;7.53;6.72;;;;;;;;;;5047928;28;20045;-62
2022/08/15 13:02:24;;;;;;;9.77;5.85;;;;;;;;;;5047748;28;20450;-61
2022/08/15 13:04:51;;;;;;;9.85;6.28;;;;;;;;;;5047611;28;20401;-61
2022/08/15 13:07:18;;;;;;;8.05;6.00;;;;;;;;;;5048483;28;20585;-61
2022/08/15 13:09:45;;;;;;;9.75;6.68;;;;;;;;;;5047979;28;20057;-61
2022/08/15 13:12:11;;;;;;;8.90;6.03;;;;;;;;;;5049060;28;20513;-62
2022/08/15 13:14:37;;;;;;;7.22;5.47;;;;;;;;;;5052532;28;20063;-62
2022/08/15 13:17:04;;;;;;;7.80;6.15;;;;;;;;;;5052588;28;20055;-61
2022/08/15 13:19:31;;;;;;;7.57;6.22;;;;;;;;;;5051956;28;20411;-62
2022/08/15 13:24:43;;;;;;;9.15;5.90;;;;;;;;;;5052309;28;20052;-61
2022/08/15 13:27:09;;;;;;;9.55;5.70;;;;;;;;;;5051832;28;20064;-61
2022/08/15 13:29:36;;;;;;;6.75;5.22;;;;;;;;;;5052293;28;20128;-61
2022/08/15 13:32:07;;;;;;;9.40;5.20;;;;;;;;;;5052284;28;20037;-62
2022/08/15 13:34:36;;;;;;;6.53;5.15;;;;;;;;;;5052269;28;20081;-61
2022/08/15 13:37:02;;;;;;;6.95;5.65;;;;;;;;;;5052214;28;20041;-61
2022/08/15 13:39:38;;;;;;;9.13;4.90;;;;;;;;;;5051494;28;20048;-61
2022/08/15 13:42:04;;;;;;;8.73;4.72;;;;;;;;;;5050527;28;20521;-61
2022/08/15 13:44:31;;;;;;;7.05;4.35;;;;;;;;;;5050595;28;20049;-61
2022/08/15 13:46:58;;;;;;;5.57;4.18;;;;;;;;;;5049865;28;20049;-61
2022/08/15 13:49:24;;;;;;;12.93;5.38;;;;;;;;;;5048333;28;20084;-61
2022/08/15 13:51:52;;;;;;;7.82;3.80;;;;;;;;;;5049887;28;20502;-61
2022/08/15 13:54:19;;;;;;;6.10;3.67;;;;;;;;;;5049847;28;20056;-61
2022/08/15 13:56:45;;;;;;;5.57;3.15;;;;;;;;;;5051435;28;20043;-61
2022/08/15 13:59:12;;;;;;;4.70;3.08;;;;;;;;;;5051209;28;20037;-61
2022/08/15 14:01:39;;;;;;;5.95;2.88;;;;;;;;;;5050895;28;20052;-61
2022/08/15 14:04:12;;;;;;;4.93;3.03;;;;;;;;;;5051257;28;20052;-61
2022/08/15 14:06:38;;;;;;;5.10;2.80;;;;;;;;;;5037273;28;20037;-62
2022/08/15 14:09:06;;;;;;;6.13;2.63;;;;;;;;;;5051068;28;20519;-61
2022/08/15 14:11:32;;;;;;;4.90;2.92;;;;;;;;;;5050123;28;20128;-62
2022/08/15 14:13:58;;;;;;;4.43;2.70;;;;;;;;;;5051496;28;20041;-61
2022/08/15 14:16:26;;;;;;;3.50;2.75;;;;;;;;;;5051132;28;20127;-62
2022/08/15 14:18:53;;;;;;;6.30;3.25;;;;;;;;;;5049293;28;20036;-62
2022/08/15 14:21:21;;;;;;;3.53;2.33;;;;;;;;;;5049646;28;20048;-61
2022/08/15 14:23:48;;;;;;;4.15;2.95;;;;;;;;;;5044405;28;20052;-61
2022/08/15 14:26:14;;;;;;;6.88;3.03;;;;;;;;;;5040484;28;20695;-61
2022/08/15 14:28:41;;;;;;;5.00;2.53;;;;;;;;;;5030776;28;20076;-61
2022/08/15 14:31:07;;;;;;;5.95;2.88;;;;;;;;;;5049336;28;20045;-61
2022/08/15 14:33:33;;;;;;;4.20;2.90;;;;;;;;;;5049763;28;20495;-62
2022/08/15 14:36:00;;;;;;;5.38;2.88;;;;;;;;;;5050687;28;20048;-62
2022/08/15 14:38:28;;;;;;;6.45;4.18;;;;;;;;;;5050271;28;20099;-62
2022/08/15 14:40:54;;;;;;;5.45;3.95;;;;;;;;;;5030807;28;20052;-61
2022/08/15 14:43:21;;;;;;;10.35;4.65;;;;;;;;;;5037704;28;20128;-61